createdAt,value
2018-04-06T00:01:21.053Z,2.10
2018-04-06T00:03:47.951Z,2.00
2018-04-06T00:06:14.833Z,1.80
2018-04-06T00:08:41.690Z,2.00
2018-04-06T00:11:08.635Z,2.13
2018-04-06T00:13:35.447Z,2.03
2018-04-06T00:16:02.275Z,2.00
2018-04-06T00:18:29.199Z,2.30
2018-04-06T00:20:56.201Z,2.40
2018-04-06T00:23:23.068Z,2.10
2018-04-06T00:25:50.046Z,2.13
2018-04-06T00:28:16.992Z,2.20
2018-04-06T00:30:43.846Z,2.13
2018-04-06T00:33:10.755Z,2.30
2018-04-06T00:35:37.580Z,2.00
2018-04-06T00:38:04.457Z,2.40
2018-04-06T00:40:31.334Z,2.23
2018-04-06T00:42:58.268Z,2.60
2018-04-06T00:45:25.193Z,2.10
2018-04-06T00:47:52.100Z,2.60
2018-04-06T00:50:19.059Z,2.70
2018-04-06T00:52:46.057Z,2.30
2018-04-06T00:55:13.013Z,2.50
2018-04-06T00:57:39.884Z,2.53
2018-04-06T01:00:06.760Z,2.60
2018-04-06T01:02:33.718Z,2.40
2018-04-06T01:05:00.649Z,2.33
2018-04-06T01:07:27.539Z,2.30
2018-04-06T01:09:54.483Z,2.93
2018-04-06T01:12:21.316Z,2.87
2018-04-06T01:14:48.184Z,2.50
2018-04-06T01:17:15.220Z,2.77
2018-04-06T01:19:42.175Z,2.80
2018-04-06T01:22:09.077Z,2.80
2018-04-06T01:24:36.064Z,2.80
2018-04-06T01:27:02.895Z,2.90
2018-04-06T01:29:29.895Z,2.87
2018-04-06T01:31:56.823Z,2.87
2018-04-06T01:34:23.772Z,2.83
2018-04-06T01:36:50.675Z,3.00
2018-04-06T01:39:17.693Z,2.53
2018-04-06T01:41:44.594Z,2.87
2018-04-06T01:44:11.570Z,3.20
2018-04-06T01:46:38.480Z,3.30
2018-04-06T01:49:05.386Z,3.30
2018-04-06T01:51:32.371Z,3.13
2018-04-06T01:53:59.317Z,2.90
2018-04-06T01:56:26.239Z,3.40
2018-04-06T01:58:53.124Z,3.20
2018-04-06T02:01:20.034Z,3.17
2018-04-06T02:03:47.062Z,3.57
2018-04-06T02:06:13.956Z,3.17
2018-04-06T02:08:40.894Z,3.17
2018-04-06T02:11:07.802Z,3.57
2018-04-06T02:13:34.625Z,3.37
2018-04-06T02:16:01.533Z,3.57
2018-04-06T02:18:29.324Z,3.20
2018-04-06T02:20:56.256Z,3.40
2018-04-06T02:23:23.254Z,4.37
2018-04-06T02:25:50.148Z,3.60
2018-04-06T02:28:17.040Z,3.53
2018-04-06T02:30:43.885Z,4.23
2018-04-06T02:33:10.846Z,3.60
2018-04-06T02:35:38.591Z,4.00
2018-04-06T02:38:05.595Z,3.70
2018-04-06T02:40:32.432Z,4.10
2018-04-06T02:42:59.353Z,3.87
2018-04-06T02:45:26.227Z,3.87
2018-04-06T02:47:53.157Z,4.00
2018-04-06T02:50:20.065Z,4.40
2018-04-06T02:52:46.937Z,4.30
2018-04-06T02:55:13.833Z,4.03
2018-04-06T02:57:40.779Z,3.97
2018-04-06T03:00:07.605Z,4.17
2018-04-06T03:02:34.578Z,4.17
2018-04-06T03:05:01.425Z,4.40
2018-04-06T03:07:28.303Z,4.17
2018-04-06T03:09:55.143Z,4.50
2018-04-06T03:12:22.090Z,4.07
2018-04-06T03:14:48.953Z,4.10
2018-04-06T03:17:15.842Z,4.37
2018-04-06T03:19:42.819Z,4.20
2018-04-06T03:22:09.878Z,4.17
2018-04-06T03:24:36.741Z,4.20
2018-04-06T03:27:03.714Z,4.23
2018-04-06T03:29:30.643Z,4.70
2018-04-06T03:31:57.489Z,3.60
2018-04-06T03:34:24.463Z,4.13
2018-04-06T03:36:51.370Z,3.67
2018-04-06T03:39:18.209Z,5.13
2018-04-06T03:41:45.072Z,5.03
2018-04-06T03:44:11.955Z,4.03
2018-04-06T03:46:38.771Z,4.60
2018-04-06T03:49:05.691Z,4.53
2018-04-06T03:51:32.584Z,4.13
2018-04-06T03:53:59.545Z,4.77
2018-04-06T03:56:26.473Z,5.20
2018-04-06T03:58:53.547Z,4.93
2018-04-06T04:01:20.429Z,4.67
2018-04-06T04:03:47.310Z,4.70
2018-04-06T04:06:14.214Z,5.07
2018-04-06T04:08:41.133Z,5.68
2018-04-06T04:11:08.072Z,5.30
2018-04-06T04:13:35.022Z,5.37
2018-04-06T04:16:02.007Z,4.50
2018-04-06T04:18:29.023Z,4.85
2018-04-06T04:20:55.955Z,4.60
2018-04-06T04:23:22.876Z,5.10
2018-04-06T04:25:49.819Z,4.93
2018-04-06T04:28:17.067Z,5.40
2018-04-06T04:30:43.945Z,6.05
2018-04-06T04:33:10.891Z,6.00
2018-04-06T04:35:37.820Z,5.00
2018-04-06T04:38:04.686Z,5.65
2018-04-06T04:40:31.628Z,5.17
2018-04-06T04:42:58.434Z,5.20
2018-04-06T04:45:25.356Z,4.82
2018-04-06T04:47:52.402Z,4.97
2018-04-06T04:50:19.326Z,5.30
2018-04-06T04:52:46.246Z,5.53
2018-04-06T04:55:13.183Z,4.97
2018-04-06T04:57:40.141Z,5.70
2018-04-06T05:00:07.080Z,5.53
2018-04-06T05:02:34.079Z,5.07
2018-04-06T05:05:00.986Z,5.68
2018-04-06T05:07:28.198Z,5.70
2018-04-06T05:09:55.259Z,5.62
2018-04-06T05:12:22.155Z,5.73
2018-04-06T05:14:49.021Z,5.40
2018-04-06T05:17:15.916Z,5.28
2018-04-06T05:19:44.352Z,4.80
2018-04-06T05:22:11.246Z,5.60
2018-04-06T05:24:38.186Z,5.73
2018-04-06T05:27:05.021Z,5.47
2018-04-06T05:29:31.989Z,5.87
2018-04-06T05:31:58.967Z,5.73
2018-04-06T05:34:25.796Z,5.50
2018-04-06T05:36:52.657Z,6.30
2018-04-06T05:39:19.872Z,5.90
2018-04-06T05:41:46.799Z,5.80
2018-04-06T05:44:13.715Z,5.50
2018-04-06T05:46:40.638Z,5.43
2018-04-06T05:49:07.608Z,5.83
2018-04-06T05:51:34.459Z,5.53
2018-04-06T05:54:01.304Z,5.67
2018-04-06T05:56:28.167Z,5.37
2018-04-06T05:58:55.006Z,5.40
2018-04-06T06:01:21.862Z,5.73
2018-04-06T06:03:48.736Z,5.67
2018-04-06T06:06:15.591Z,5.93
2018-04-06T06:08:42.514Z,5.30
2018-04-06T06:11:09.487Z,5.63
2018-04-06T06:13:36.380Z,5.80
2018-04-06T06:16:03.252Z,6.10
2018-04-06T06:18:30.102Z,6.43
2018-04-06T06:20:57.022Z,5.83
2018-04-06T06:23:23.880Z,5.93
2018-04-06T06:25:50.756Z,6.77
2018-04-06T06:28:17.635Z,6.70
2018-04-06T06:30:44.483Z,7.37
2018-04-06T06:33:11.344Z,7.30
2018-04-06T06:35:38.334Z,6.93
2018-04-06T06:38:05.187Z,7.03
2018-04-06T06:40:32.012Z,6.43
2018-04-06T06:42:59.078Z,7.10
2018-04-06T06:45:26.055Z,7.10
2018-04-06T06:47:53.024Z,6.47
2018-04-06T06:50:19.911Z,6.63
2018-04-06T06:52:46.791Z,6.80
2018-04-06T06:55:13.744Z,6.93
2018-04-06T06:57:40.600Z,6.73
2018-04-06T07:00:07.538Z,6.67
2018-04-06T07:02:34.348Z,6.37
2018-04-06T07:05:01.253Z,7.13
2018-04-06T07:07:28.119Z,6.27
2018-04-06T07:09:55.013Z,6.30
2018-04-06T07:12:21.923Z,6.23
2018-04-06T07:14:48.805Z,6.43
2018-04-06T07:17:15.722Z,6.37
2018-04-06T07:19:42.686Z,6.03
2018-04-06T07:22:09.486Z,5.93
2018-04-06T07:24:36.340Z,6.57
2018-04-06T07:27:03.337Z,6.07
2018-04-06T07:29:30.221Z,6.67
2018-04-06T07:31:57.143Z,6.70
2018-04-06T07:34:24.053Z,7.13
2018-04-06T07:36:50.939Z,6.00
2018-04-06T07:39:17.840Z,6.43
2018-04-06T07:41:44.732Z,7.00
2018-04-06T07:44:11.671Z,6.00
2018-04-06T07:46:38.617Z,6.90
2018-04-06T07:49:05.574Z,6.53
2018-04-06T07:51:32.609Z,6.60
2018-04-06T07:54:00.880Z,6.50
2018-04-06T07:56:29.870Z,5.87
2018-04-06T07:58:56.899Z,5.87
2018-04-06T08:01:23.986Z,5.97
2018-04-06T08:03:50.992Z,6.10
2018-04-06T08:06:17.982Z,6.17
2018-04-06T08:08:44.876Z,6.07
2018-04-06T08:11:11.750Z,5.90
2018-04-06T08:13:38.770Z,5.97
2018-04-06T08:16:05.584Z,6.13
2018-04-06T08:18:32.488Z,6.13
2018-04-06T08:20:59.434Z,4.77
2018-04-06T08:23:26.377Z,5.13
2018-04-06T08:25:53.373Z,5.57
2018-04-06T08:28:24.040Z,5.67
2018-04-06T08:30:51.071Z,4.70
2018-04-06T08:33:17.985Z,5.70
2018-04-06T08:35:44.945Z,5.80
2018-04-06T08:38:11.960Z,6.47
2018-04-06T08:40:38.927Z,6.50
2018-04-06T08:43:05.823Z,6.50
2018-04-06T08:45:32.786Z,6.13
2018-04-06T08:47:59.635Z,6.37
2018-04-06T08:50:26.606Z,6.07
2018-04-06T08:52:53.503Z,5.97
2018-04-06T08:55:20.423Z,6.07
2018-04-06T08:57:47.368Z,6.40
2018-04-06T09:00:14.207Z,6.83
2018-04-06T09:02:41.086Z,5.83
2018-04-06T09:05:07.990Z,6.10
2018-04-06T09:07:34.935Z,5.47
2018-04-06T09:10:01.839Z,5.50
2018-04-06T09:12:28.720Z,5.83
2018-04-06T09:14:55.531Z,5.40
2018-04-06T09:17:22.359Z,5.80
2018-04-06T09:19:49.309Z,5.00
2018-04-06T09:22:16.267Z,5.40
2018-04-06T09:24:43.172Z,5.27
2018-04-06T09:27:09.998Z,5.13
2018-04-06T09:29:36.872Z,4.77
2018-04-06T09:32:03.797Z,5.70
2018-04-06T09:34:30.674Z,6.90
2018-04-06T09:36:57.505Z,6.47
2018-04-06T09:39:24.513Z,5.43
2018-04-06T09:41:51.359Z,5.83
2018-04-06T09:44:18.190Z,5.43
2018-04-06T09:46:46.928Z,5.30
2018-04-06T09:49:13.843Z,4.67
2018-04-06T09:51:40.705Z,4.40
2018-04-06T09:54:07.565Z,4.67
2018-04-06T09:56:34.491Z,5.00
2018-04-06T09:59:01.415Z,5.03
2018-04-06T10:01:34.184Z,4.63
2018-04-06T10:04:01.099Z,5.30
2018-04-06T10:06:28.007Z,5.63
2018-04-06T10:08:54.941Z,5.63
2018-04-06T10:11:21.850Z,4.93
2018-04-06T10:13:48.770Z,4.77
2018-04-06T10:16:15.743Z,5.07
2018-04-06T10:18:42.740Z,5.40
2018-04-06T10:21:09.622Z,5.50
2018-04-06T10:23:36.520Z,6.67
2018-04-06T10:26:03.340Z,5.77
2018-04-06T10:28:30.224Z,6.40
2018-04-06T10:30:57.106Z,8.10
2018-04-06T10:33:23.999Z,6.67
2018-04-06T10:35:50.895Z,5.90
2018-04-06T10:38:17.730Z,6.00
2018-04-06T10:40:44.637Z,12.37
2018-04-06T10:43:11.655Z,7.50
2018-04-06T10:45:38.612Z,6.53
2018-04-06T10:48:05.511Z,5.93
2018-04-06T10:50:32.394Z,7.30
2018-04-06T10:52:59.238Z,12.33
2018-04-06T10:55:26.113Z,5.87
2018-04-06T10:57:53.021Z,6.00
2018-04-06T11:00:19.860Z,7.87
2018-04-06T11:02:46.809Z,21.97
2018-04-06T11:05:13.646Z,6.73
2018-04-06T11:07:40.475Z,5.60
2018-04-06T11:10:07.326Z,5.97
2018-04-06T11:12:34.229Z,6.20
2018-04-06T11:15:01.126Z,5.87
2018-04-06T11:17:27.984Z,5.37
2018-04-06T11:19:54.945Z,5.23
2018-04-06T11:22:21.784Z,5.33
2018-04-06T11:24:48.638Z,7.47
2018-04-06T11:27:15.525Z,6.03
2018-04-06T11:29:42.364Z,5.97
2018-04-06T11:32:09.287Z,6.30
2018-04-06T11:34:36.186Z,5.70
2018-04-06T11:37:03.049Z,5.20
2018-04-06T11:39:29.922Z,5.23
2018-04-06T11:41:56.758Z,5.40
2018-04-06T11:44:23.693Z,6.30
2018-04-06T11:46:50.608Z,5.30
2018-04-06T11:49:17.475Z,9.43
2018-04-06T11:51:44.379Z,5.50
2018-04-06T11:54:11.264Z,6.53
2018-04-06T11:56:38.137Z,7.00
2018-04-06T11:59:05.032Z,6.03
2018-04-06T12:01:32.085Z,4.80
2018-04-06T12:03:58.966Z,4.97
2018-04-06T12:06:25.885Z,6.47
2018-04-06T12:08:52.734Z,4.77
2018-04-06T12:11:19.556Z,4.87
2018-04-06T12:13:46.381Z,5.70
2018-04-06T12:16:13.304Z,5.20
2018-04-06T12:18:40.202Z,5.50
2018-04-06T12:21:07.068Z,5.30
2018-04-06T12:23:33.897Z,4.80
2018-04-06T12:26:00.834Z,4.90
2018-04-06T12:28:27.776Z,4.70
2018-04-06T12:30:54.646Z,4.97
2018-04-06T12:33:21.502Z,4.83
2018-04-06T12:35:48.438Z,5.87
2018-04-06T12:38:15.332Z,5.30
2018-04-06T12:40:42.198Z,5.17
2018-04-06T12:43:09.268Z,5.20
2018-04-06T12:45:36.274Z,5.90
2018-04-06T12:48:04.227Z,5.67
2018-04-06T12:50:31.099Z,5.47
2018-04-06T12:52:57.989Z,4.80
2018-04-06T12:55:24.862Z,5.10
2018-04-06T12:57:54.295Z,4.90
2018-04-06T13:00:23.489Z,5.33
2018-04-06T13:02:53.846Z,5.27
2018-04-06T13:05:20.899Z,6.10
2018-04-06T13:07:47.734Z,6.10
2018-04-06T13:10:14.580Z,5.53
2018-04-06T13:12:41.370Z,6.10
2018-04-06T13:15:08.272Z,6.13
2018-04-06T13:17:35.138Z,5.50
2018-04-06T13:20:01.952Z,5.90
2018-04-06T13:22:28.846Z,6.03
2018-04-06T13:24:55.678Z,5.47
2018-04-06T13:27:22.620Z,5.53
2018-04-06T13:29:49.643Z,6.10
2018-04-06T13:32:16.708Z,5.63
2018-04-06T13:34:43.546Z,5.63
2018-04-06T13:37:10.489Z,5.53
2018-04-06T13:39:37.472Z,5.20
2018-04-06T13:42:04.800Z,5.63
2018-04-06T13:44:31.626Z,5.50
2018-04-06T13:46:58.485Z,5.40
2018-04-06T13:49:25.371Z,5.37
2018-04-06T13:51:52.309Z,5.50
2018-04-06T13:54:19.267Z,4.90
2018-04-06T13:56:46.200Z,5.47
2018-04-06T13:59:13.212Z,5.20
2018-04-06T14:01:40.128Z,5.27
2018-04-06T14:04:06.946Z,5.17
2018-04-06T14:06:33.855Z,5.00
2018-04-06T14:09:00.751Z,4.97
2018-04-06T14:11:27.666Z,4.97
2018-04-06T14:13:54.584Z,4.50
2018-04-06T14:16:21.574Z,4.93
2018-04-06T14:18:48.694Z,5.57
2018-04-06T14:21:15.625Z,5.10
2018-04-06T14:23:42.543Z,4.73
2018-04-06T15:06:34.836Z,5.10
2018-04-06T15:09:01.765Z,4.73
2018-04-06T15:11:28.697Z,5.17
2018-04-06T15:13:55.565Z,4.57
2018-04-06T15:16:22.482Z,5.40
2018-04-06T15:18:52.177Z,4.80
2018-04-06T15:21:19.414Z,5.50
2018-04-06T15:23:46.288Z,5.07
2018-04-06T15:26:13.172Z,4.57
2018-04-06T15:28:40.057Z,5.30
2018-04-06T15:31:06.964Z,5.80
2018-04-06T15:33:33.910Z,5.93
2018-04-06T15:36:25.441Z,6.03
2018-04-06T15:38:52.330Z,5.53
2018-04-06T15:41:19.162Z,6.30
2018-04-06T15:43:46.153Z,5.27
2018-04-06T15:46:13.126Z,5.57
2018-04-06T15:48:39.962Z,4.93
2018-04-06T15:51:06.875Z,5.07
2018-04-06T15:53:33.912Z,4.43
2018-04-06T15:56:00.757Z,5.13
2018-04-06T16:01:34.937Z,4.80
2018-04-06T16:04:02.439Z,5.40
2018-04-06T16:06:29.345Z,5.70
2018-04-06T16:08:56.246Z,5.00
2018-04-06T16:11:23.183Z,5.63
2018-04-06T16:13:50.143Z,5.97
2018-04-06T16:16:17.051Z,6.00
2018-04-06T16:18:43.994Z,5.67
2018-04-06T16:21:10.886Z,5.43
2018-04-06T16:23:37.704Z,6.07
2018-04-06T16:26:04.680Z,5.93
2018-04-06T16:28:31.551Z,5.70
2018-04-06T16:30:58.527Z,5.53
2018-04-06T16:33:25.383Z,6.30
2018-04-06T16:35:52.270Z,6.03
2018-04-06T16:38:19.144Z,5.50
2018-04-06T16:40:46.070Z,5.97
2018-04-06T16:43:12.929Z,6.00
2018-04-06T16:45:39.746Z,5.80
2018-04-06T16:48:06.604Z,5.20
2018-04-06T16:50:33.625Z,6.17
2018-04-06T16:53:00.547Z,6.37
2018-04-06T16:55:27.608Z,5.73
2018-04-06T16:57:54.449Z,6.10
2018-04-06T17:00:21.472Z,6.17
2018-04-06T17:02:48.317Z,6.10
2018-04-06T17:05:15.137Z,5.80
2018-04-06T17:07:42.007Z,5.70
2018-04-06T17:10:08.850Z,6.20
2018-04-06T17:12:35.849Z,5.90
2018-04-06T17:15:02.661Z,5.87
2018-04-06T17:17:29.485Z,5.90
2018-04-06T17:19:56.460Z,6.50
2018-04-06T17:22:23.306Z,5.40
2018-04-06T17:24:50.206Z,5.77
2018-04-06T17:27:16.995Z,5.60
2018-04-06T17:29:43.835Z,5.17
2018-04-06T17:32:10.697Z,5.70
2018-04-06T17:34:37.538Z,5.23
2018-04-06T17:37:04.365Z,5.43
2018-04-06T17:39:31.287Z,5.70
2018-04-06T17:41:58.200Z,5.40
2018-04-06T17:44:25.037Z,5.53
2018-04-06T17:46:52.015Z,5.73
2018-04-06T17:49:19.730Z,5.93
2018-04-06T17:51:46.531Z,5.20
2018-04-06T17:54:13.485Z,5.57
2018-04-06T17:56:40.622Z,5.10
2018-04-06T17:59:07.492Z,5.13
2018-04-06T18:01:34.382Z,5.23
2018-04-06T18:04:01.186Z,5.43
2018-04-06T18:06:28.007Z,4.97
2018-04-06T18:08:54.974Z,4.87
2018-04-06T18:11:21.787Z,5.60
2018-04-06T18:13:48.605Z,5.13
2018-04-06T18:16:15.504Z,5.03
2018-04-06T18:18:42.434Z,5.53
2018-04-06T18:21:09.247Z,5.73
2018-04-06T18:23:36.206Z,6.50
2018-04-06T18:26:03.050Z,5.70
2018-04-06T18:28:29.978Z,5.30
2018-04-06T18:30:56.930Z,5.17
2018-04-06T18:33:23.755Z,5.60
2018-04-06T18:35:50.615Z,4.90
2018-04-06T18:38:17.438Z,6.03
2018-04-06T18:40:44.286Z,6.30
2018-04-06T18:43:11.122Z,5.80
2018-04-06T18:45:37.962Z,5.53
2018-04-06T18:48:04.820Z,5.63
2018-04-06T18:50:31.670Z,6.40
2018-04-06T18:52:58.673Z,6.40
2018-04-06T18:55:25.513Z,5.80
2018-04-06T18:57:52.364Z,6.10
2018-04-06T19:00:19.241Z,6.80
2018-04-06T19:02:46.155Z,6.07
2018-04-06T19:05:13.043Z,6.10
2018-04-06T19:07:39.905Z,7.03
2018-04-06T19:10:06.815Z,6.67
2018-04-06T19:12:33.641Z,6.50
2018-04-06T19:15:00.504Z,6.87
2018-04-06T19:17:27.426Z,6.10
2018-04-06T19:19:54.359Z,6.67
2018-04-06T19:22:21.246Z,6.43
2018-04-06T19:24:48.264Z,5.90
2018-04-06T19:27:15.266Z,7.13
2018-04-06T19:29:42.241Z,6.60
2018-04-06T19:32:09.091Z,6.57
2018-04-06T19:34:36.511Z,6.80
2018-04-06T19:37:03.431Z,7.20
2018-04-06T19:39:30.558Z,6.50
2018-04-06T19:41:57.600Z,6.90
2018-04-06T19:44:24.602Z,7.07
2018-04-06T19:46:51.537Z,6.87
2018-04-06T19:49:18.366Z,7.43
2018-04-06T19:51:45.220Z,7.07
2018-04-06T19:54:12.036Z,6.90
2018-04-06T19:56:38.922Z,6.67
2018-04-06T19:59:05.814Z,6.27
2018-04-06T20:01:32.833Z,6.67
2018-04-06T20:04:00.530Z,6.30
2018-04-06T20:06:27.393Z,6.57
2018-04-06T20:08:54.418Z,7.00
2018-04-06T20:11:22.471Z,6.93
2018-04-06T20:13:49.325Z,6.97
2018-04-06T20:16:16.270Z,7.00
2018-04-06T20:18:43.344Z,6.60
2018-04-06T20:21:10.231Z,7.00
2018-04-06T20:23:37.115Z,6.37
2018-04-06T20:26:03.977Z,6.80
2018-04-06T20:28:30.837Z,6.47
2018-04-06T20:30:57.728Z,6.53
2018-04-06T20:33:24.666Z,6.37
2018-04-06T20:35:51.757Z,6.47
2018-04-06T20:38:18.885Z,5.60
2018-04-06T20:40:45.913Z,5.13
2018-04-06T20:43:13.034Z,5.50
2018-04-06T20:45:39.951Z,5.83
2018-04-06T20:48:08.200Z,6.23
2018-04-06T20:50:35.123Z,4.63
2018-04-06T20:53:02.709Z,5.10
2018-04-06T20:55:29.960Z,4.63
2018-04-06T20:57:56.899Z,4.40
2018-04-06T21:00:23.871Z,4.10
2018-04-06T21:02:50.880Z,3.60
2018-04-06T21:05:17.786Z,4.17
2018-04-06T21:07:44.676Z,4.90
2018-04-06T21:10:11.568Z,3.60
2018-04-06T21:12:38.440Z,3.60
2018-04-06T21:15:05.400Z,4.17
2018-04-06T21:17:32.326Z,4.20
2018-04-06T21:19:59.181Z,4.37
2018-04-06T21:22:26.137Z,3.80
2018-04-06T21:24:52.958Z,4.20
2018-04-06T21:27:19.830Z,4.50
2018-04-06T21:29:46.746Z,4.40
2018-04-06T21:32:13.695Z,3.70
2018-04-06T21:34:40.795Z,4.70
2018-04-06T21:37:07.678Z,4.60
2018-04-06T21:39:34.529Z,4.40
2018-04-06T21:42:01.435Z,4.55
2018-04-06T21:44:28.327Z,4.37
2018-04-06T21:46:55.172Z,5.00
2018-04-06T21:49:22.066Z,4.43
2018-04-06T21:51:49.200Z,4.53
2018-04-06T21:54:16.129Z,4.33
2018-04-06T21:56:43.008Z,4.50
2018-04-06T21:59:09.921Z,4.20
2018-04-06T22:01:36.736Z,4.50
2018-04-06T22:04:03.669Z,4.50
2018-04-06T22:06:30.559Z,4.87
2018-04-06T22:08:57.377Z,5.40
2018-04-06T22:11:24.243Z,5.20
2018-04-06T22:13:51.134Z,5.13
2018-04-06T22:16:17.956Z,5.33
2018-04-06T22:18:44.781Z,5.25
2018-04-06T22:21:11.703Z,5.33
2018-04-06T22:23:38.664Z,5.47
2018-04-06T22:26:05.637Z,4.85
2018-04-06T22:28:32.555Z,5.77
2018-04-06T22:30:59.365Z,4.80
2018-04-06T22:33:26.206Z,5.80
2018-04-06T22:35:53.026Z,4.68
2018-04-06T22:38:19.875Z,5.00
2018-04-06T22:40:46.739Z,4.77
2018-04-06T22:43:13.602Z,4.78
2018-04-06T22:45:40.453Z,4.97
2018-04-06T22:48:07.338Z,4.80
2018-04-06T22:50:34.183Z,5.40
2018-04-06T22:53:01.099Z,6.15
2018-04-06T22:55:28.027Z,5.40
2018-04-06T22:57:54.907Z,5.50
2018-04-06T23:00:21.870Z,5.20
2018-04-06T23:02:48.718Z,5.90
2018-04-06T23:05:15.720Z,5.72
2018-04-06T23:07:42.638Z,4.78
2018-04-06T23:10:09.513Z,5.75
2018-04-06T23:12:36.527Z,5.55
2018-04-06T23:15:03.427Z,5.55
2018-04-06T23:17:30.306Z,5.35
2018-04-06T23:19:57.183Z,5.12
2018-04-06T23:22:24.021Z,4.95
2018-04-06T23:24:50.920Z,5.60
2018-04-06T23:27:17.799Z,5.28
2018-04-06T23:29:44.696Z,5.47
2018-04-06T23:32:11.592Z,5.50
2018-04-06T23:34:38.468Z,5.35
2018-04-06T23:37:05.344Z,5.72
2018-04-06T23:39:32.170Z,5.37
2018-04-06T23:41:59.013Z,5.45
2018-04-06T23:44:26.042Z,5.45
2018-04-06T23:46:52.970Z,5.75
2018-04-06T23:49:19.878Z,5.18
2018-04-06T23:51:46.767Z,5.85
2018-04-06T23:54:13.609Z,5.25
2018-04-06T23:56:40.479Z,5.62
2018-04-06T23:59:07.687Z,5.85
